Time;durP1;ratioP1;P1;durP2;ratioP2;P2;SDS_P1;SDS_P2;PMS_P1;PMS_P2;Temp;Humidity;BMP_temperature;BMP_pressure;BME280_temperature;BME280_humidity;BME280_pressure;Samples;Min_cycle;Max_cycle;Signal;HPM_P1;HPM_P2
2021/07/27 00:00:11;;;;;;;8.75;6.30;;;20.10;99.90;;;;;;5049264;28;20041;-72
2021/07/27 00:02:38;;;;;;;9.05;6.90;;;20.00;99.90;;;;;;5045890;28;20103;-72
2021/07/27 00:05:06;;;;;;;9.95;6.05;;;20.00;99.90;;;;;;5031742;28;20072;-73
2021/07/27 00:07:37;;;;;;;7.25;5.88;;;20.00;99.90;;;;;;5043295;28;20041;-72
2021/07/27 00:10:04;;;;;;;7.83;6.57;;;20.00;99.90;;;;;;5050167;28;20056;-72
2021/07/27 00:15:12;;;;;;;6.15;5.50;;;19.90;99.90;;;;;;5024318;28;20473;-72
2021/07/27 00:17:39;;;;;;;6.18;5.57;;;19.90;99.90;;;;;;5009733;28;20045;-72
2021/07/27 00:20:08;;;;;;;6.47;5.68;;;19.90;99.90;;;;;;5010966;28;20493;-73
2021/07/27 00:22:40;;;;;;;7.38;5.97;;;19.90;99.90;;;;;;5029341;28;20042;-72
2021/07/27 00:25:08;;;;;;;6.53;5.78;;;20.00;99.90;;;;;;5012678;28;20050;-71
2021/07/27 00:27:34;;;;;;;8.27;6.18;;;19.90;99.90;;;;;;5029175;28;20092;-72
2021/07/27 00:30:03;;;;;;;8.95;6.50;;;19.90;99.90;;;;;;5020469;28;20383;-72
2021/07/27 00:32:29;;;;;;;7.13;6.25;;;19.90;99.90;;;;;;5009427;28;20601;-72
2021/07/27 00:34:56;;;;;;;6.85;6.15;;;19.80;99.90;;;;;;5009535;28;20097;-73
2021/07/27 00:37:28;;;;;;;6.53;5.70;;;19.70;99.90;;;;;;5009332;28;20076;-72
2021/07/27 00:39:55;;;;;;;7.78;5.82;;;19.70;99.90;;;;;;5008907;28;20049;-72
2021/07/27 00:42:21;;;;;;;7.03;6.32;;;19.60;99.90;;;;;;5009498;28;20096;-72
2021/07/27 00:44:48;;;;;;;6.95;6.03;;;19.60;99.90;;;;;;5009183;28;20054;-71
2021/07/27 00:47:15;;;;;;;6.78;5.72;;;19.80;99.90;;;;;;5028966;28;20049;-72
2021/07/27 00:49:42;;;;;;;7.63;6.03;;;19.70;99.90;;;;;;5031192;28;20103;-72
2021/07/27 00:52:09;;;;;;;8.40;6.55;;;19.60;99.90;;;;;;5040122;28;20394;-72
2021/07/27 00:54:38;;;;;;;7.90;6.05;;;19.50;99.90;;;;;;5031641;28;20564;-72
2021/07/27 00:57:05;;;;;;;8.40;7.15;;;19.40;99.90;;;;;;5031340;28;20046;-72
2021/07/27 00:59:32;;;;;;;8.30;6.68;;;19.30;99.90;;;;;;5037696;28;20448;-71
2021/07/27 01:01:58;;;;;;;7.45;6.68;;;19.30;99.90;;;;;;5036712;28;20045;-75
2021/07/27 01:04:25;;;;;;;7.85;6.40;;;19.30;99.90;;;;;;5031426;28;20053;-72
2021/07/27 01:06:52;;;;;;;8.23;6.93;;;19.30;99.90;;;;;;5031176;28;20552;-72
2021/07/27 01:12:01;;;;;;;9.40;7.18;;;19.20;99.90;;;;;;4992952;28;20046;-72
2021/07/27 01:14:27;;;;;;;8.48;6.80;;;19.40;99.90;;;;;;5008997;28;20042;-72
2021/07/27 01:16:54;;;;;;;12.88;7.18;;;19.50;99.90;;;;;;5009157;28;20406;-75
2021/07/27 01:19:32;;;;;;;7.97;7.18;;;19.50;99.90;;;;;;5008102;28;20050;-72
2021/07/27 01:44:07;;;;;;;8.73;7.88;;;19.20;99.90;;;;;;5051395;28;20048;-72
2021/07/27 01:46:36;;;;;;;9.63;8.18;;;19.20;99.90;;;;;;5053883;28;20494;-72
2021/07/27 01:49:02;;;;;;;8.30;7.50;;;19.20;99.90;;;;;;5052936;28;20556;-71
2021/07/27 01:51:31;;;;;;;9.48;7.80;;;19.10;99.90;;;;;;5051344;28;20049;-72
2021/07/27 01:54:02;;;;;;;9.13;7.55;;;19.10;99.90;;;;;;5044744;28;20052;-71
2021/07/27 01:56:29;;;;;;;9.77;7.47;;;19.40;99.90;;;;;;5033641;28;20065;-72
2021/07/27 01:58:57;;;;;;;10.23;7.25;;;19.40;99.90;;;;;;5034901;28;20045;-72
2021/07/27 02:01:26;;;;;;;8.30;7.47;;;19.50;99.90;;;;;;5034235;28;20076;-72
2021/07/27 02:03:54;;;;;;;8.18;7.45;;;19.40;99.90;;;;;;5033984;28;20071;-72
2021/07/27 02:06:21;;;;;;;8.95;7.57;;;19.30;99.90;;;;;;5033938;28;20045;-72
2021/07/27 02:08:49;;;;;;;8.50;7.70;;;19.30;99.90;;;;;;5045985;28;20049;-72
2021/07/27 02:11:20;;;;;;;8.90;6.68;;;19.30;99.90;;;;;;5034322;28;20068;-72
2021/07/27 02:13:48;;;;;;;8.02;7.22;;;19.30;99.90;;;;;;5034336;28;20161;-72
2021/07/27 02:16:15;;;;;;;9.23;7.60;;;19.10;99.90;;;;;;5041673;28;20045;-72
2021/07/27 02:18:42;;;;;;;9.70;8.20;;;19.10;99.90;;;;;;5033248;28;20048;-72
2021/07/27 02:21:08;;;;;;;8.30;7.10;;;19.10;99.90;;;;;;5033348;28;20387;-72
2021/07/27 02:23:35;;;;;;;8.90;7.75;;;19.00;99.90;;;;;;5045686;28;20041;-72
2021/07/27 02:26:02;;;;;;;9.52;7.93;;;18.90;99.90;;;;;;5033832;28;20049;-72
2021/07/27 02:28:30;;;;;;;9.55;7.68;;;18.90;99.90;;;;;;5033225;28;20132;-73
2021/07/27 02:30:59;;;;;;;10.57;8.15;;;18.80;99.90;;;;;;5033634;28;20068;-73
2021/07/27 02:33:25;;;;;;;13.25;7.40;;;18.80;99.90;;;;;;5033359;28;20052;-72
2021/07/27 02:35:52;;;;;;;8.70;7.47;;;18.90;99.90;;;;;;5049995;28;20052;-73
2021/07/27 02:38:19;;;;;;;10.52;7.25;;;18.90;99.90;;;;;;5053453;28;20408;-72
2021/07/27 02:40:46;;;;;;;9.18;7.82;;;19.00;99.90;;;;;;5035801;28;20045;-71
2021/07/27 02:43:15;;;;;;;9.15;7.40;;;19.00;99.90;;;;;;5037110;28;20045;-72
2021/07/27 02:45:43;;;;;;;9.35;6.97;;;19.00;99.90;;;;;;5052877;28;20045;-72
2021/07/27 02:48:09;;;;;;;8.98;8.05;;;19.00;99.90;;;;;;5052577;28;20091;-72
2021/07/27 02:50:58;;;;;;;8.55;7.15;;;18.90;99.90;;;;;;5045078;28;20375;-71
2021/07/27 02:53:29;;;;;;;8.20;7.25;;;18.90;99.90;;;;;;5033277;28;20398;-72
2021/07/27 02:55:56;;;;;;;8.67;7.80;;;18.90;99.90;;;;;;5051156;28;20045;-72
2021/07/27 02:58:30;;;;;;;9.43;7.57;;;18.80;99.90;;;;;;5052436;28;20349;-72
2021/07/27 03:00:58;;;;;;;8.80;7.72;;;18.90;99.90;;;;;;5051902;28;20075;-71
2021/07/27 03:03:25;;;;;;;8.98;7.13;;;18.80;99.90;;;;;;5033102;28;20127;-72
2021/07/27 03:05:58;;;;;;;10.75;7.80;;;18.80;99.90;;;;;;5042191;28;20132;-72
2021/07/27 03:08:34;;;;;;;9.02;6.97;;;18.90;99.90;;;;;;5032606;28;20037;-72
2021/07/27 03:11:01;;;;;;;8.25;7.43;;;18.90;99.90;;;;;;5041244;28;20049;-72
2021/07/27 03:13:28;;;;;;;10.73;8.48;;;18.80;99.90;;;;;;5052859;28;20118;-71
2021/07/27 03:15:54;;;;;;;12.43;8.18;;;18.80;99.90;;;;;;5046512;28;20045;-72
2021/07/27 03:18:22;;;;;;;10.52;8.73;;;18.80;99.90;;;;;;5035607;28;20045;-72
2021/07/27 03:20:49;;;;;;;11.45;7.55;;;18.80;99.90;;;;;;5045733;28;20550;-71
2021/07/27 03:23:17;;;;;;;14.90;8.30;;;18.70;99.90;;;;;;5052231;28;20045;-72
2021/07/27 03:25:44;;;;;;;13.43;9.68;;;18.70;99.90;;;;;;5052152;28;20049;-71
2021/07/27 03:28:10;;;;;;;19.23;13.98;;;18.70;99.90;;;;;;5052196;28;20057;-75
2021/07/27 03:30:37;;;;;;;31.50;20.15;;;18.70;99.90;;;;;;5046089;28;20041;-74
2021/07/27 03:33:03;;;;;;;17.83;12.07;;;18.70;99.90;;;;;;5041019;28;20573;-73
2021/07/27 03:35:31;;;;;;;33.50;21.92;;;18.60;99.90;;;;;;5049853;28;20052;-74
2021/07/27 03:37:58;;;;;;;17.25;11.27;;;18.60;99.90;;;;;;5045971;28;20444;-71
2021/07/27 03:40:25;;;;;;;27.67;17.35;;;18.60;99.90;;;;;;5047996;28;20045;-69
2021/07/27 03:42:52;;;;;;;14.23;9.80;;;18.60;99.90;;;;;;5042085;28;20406;-71
2021/07/27 03:45:19;;;;;;;10.50;8.68;;;18.60;99.90;;;;;;5051816;28;20063;-70
2021/07/27 03:47:46;;;;;;;16.60;11.50;;;18.60;99.90;;;;;;5052203;28;20429;-71
2021/07/27 03:50:12;;;;;;;22.13;14.70;;;18.60;99.90;;;;;;5046660;28;20521;-74
2021/07/27 03:52:40;;;;;;;12.23;9.32;;;18.50;99.90;;;;;;5032045;28;20498;-72
2021/07/27 03:55:08;;;;;;;32.85;21.63;;;18.50;99.90;;;;;;5032101;28;20084;-71
2021/07/27 03:57:34;;;;;;;22.38;15.13;;;18.40;99.90;;;;;;5032146;28;20090;-71
2021/07/27 04:00:01;;;;;;;40.85;25.73;;;18.40;99.90;;;;;;5031423;28;20049;-69
2021/07/27 04:02:28;;;;;;;22.05;14.95;;;18.30;99.90;;;;;;5032112;28;20042;-72
2021/07/27 04:04:54;;;;;;;52.00;32.10;;;18.40;99.90;;;;;;5032022;28;20548;-72
2021/07/27 04:07:21;;;;;;;26.92;16.20;;;18.40;99.90;;;;;;5037523;28;20451;-74
2021/07/27 04:09:49;;;;;;;29.55;18.02;;;18.40;99.90;;;;;;5047896;28;20456;-72
2021/07/27 04:12:16;;;;;;;45.63;27.10;;;18.30;99.90;;;;;;5031969;28;20046;-72
2021/07/27 04:14:43;;;;;;;10.52;8.85;;;18.20;99.90;;;;;;5032098;28;20111;-72
2021/07/27 04:17:11;;;;;;;16.77;13.50;;;18.20;99.90;;;;;;5042569;28;20049;-72
2021/07/27 04:19:38;;;;;;;19.13;13.30;;;18.10;99.90;;;;;;5051487;28;20072;-69
2021/07/27 04:22:04;;;;;;;25.33;16.80;;;18.20;99.90;;;;;;5051513;28;20049;-70
2021/07/27 04:24:31;;;;;;;11.50;8.23;;;18.30;99.90;;;;;;5051504;28;20562;-67
2021/07/27 04:26:59;;;;;;;24.98;14.45;;;18.40;99.90;;;;;;5051771;28;20111;-72
2021/07/27 04:29:26;;;;;;;16.45;12.40;;;18.50;99.90;;;;;;5047505;28;20041;-71
2021/07/27 04:31:53;;;;;;;11.20;9.30;;;18.70;99.90;;;;;;5031814;28;20053;-72
2021/07/27 04:34:19;;;;;;;11.65;8.35;;;18.70;99.90;;;;;;5031821;28;20071;-67
2021/07/27 04:36:47;;;;;;;13.27;10.82;;;18.70;99.90;;;;;;5031578;28;20107;-70
2021/07/27 04:39:13;;;;;;;18.25;13.88;;;18.70;99.90;;;;;;5031209;28;20045;-68
2021/07/27 04:41:40;;;;;;;17.17;11.55;;;18.90;99.90;;;;;;5031731;28;20049;-69
2021/07/27 04:44:08;;;;;;;10.80;7.65;;;18.90;99.90;;;;;;5031925;28;20124;-67
2021/07/27 04:46:35;;;;;;;10.48;8.52;;;19.00;99.90;;;;;;5031533;28;20054;-68
2021/07/27 04:49:02;;;;;;;8.82;7.90;;;19.10;99.90;;;;;;5048439;28;20519;-67
2021/07/27 04:51:28;;;;;;;11.05;7.40;;;19.20;99.90;;;;;;5051880;28;20115;-67
2021/07/27 04:53:58;;;;;;;11.15;7.47;;;19.30;99.90;;;;;;5051759;28;20061;-67
2021/07/27 04:56:25;;;;;;;9.43;7.68;;;19.40;99.90;;;;;;5054665;28;20049;-69
2021/07/27 04:58:52;;;;;;;10.75;8.23;;;19.50;99.90;;;;;;5052984;28;20049;-67
2021/07/27 05:01:20;;;;;;;10.00;7.95;;;19.50;99.90;;;;;;5055038;28;20049;-68
2021/07/27 05:03:46;;;;;;;8.07;7.22;;;19.60;99.90;;;;;;5055302;28;20122;-70
2021/07/27 05:06:13;;;;;;;11.15;8.20;;;19.70;99.90;;;;;;5054948;28;20048;-69
2021/07/27 05:08:42;;;;;;;9.30;7.85;;;19.80;99.90;;;;;;5054383;28;20501;-67
2021/07/27 05:11:09;;;;;;;12.55;7.20;;;19.90;99.90;;;;;;5055741;28;20045;-68
2021/07/27 05:13:37;;;;;;;10.70;7.18;;;19.90;99.90;;;;;;5055834;28;20456;-69
2021/07/27 05:16:06;;;;;;;17.80;10.23;;;20.00;99.90;;;;;;5043187;28;20103;-66
2021/07/27 05:18:34;;;;;;;11.68;9.82;;;20.10;99.90;;;;;;5038532;28;20049;-72
2021/07/27 05:21:01;;;;;;;8.38;6.53;;;20.20;99.90;;;;;;5043888;28;20094;-75
2021/07/27 05:23:28;;;;;;;9.48;6.47;;;20.20;99.90;;;;;;5035392;28;20049;-73
2021/07/27 05:25:54;;;;;;;9.40;7.78;;;20.40;99.90;;;;;;5034621;28;20559;-73
2021/07/27 05:28:21;;;;;;;8.50;6.45;;;20.50;99.90;;;;;;5034343;28;20112;-72
2021/07/27 05:30:48;;;;;;;9.95;7.70;;;20.50;99.90;;;;;;5034341;28;20041;-73
2021/07/27 05:33:14;;;;;;;8.60;6.80;;;20.60;99.90;;;;;;5034956;28;20092;-71
2021/07/27 05:35:42;;;;;;;8.68;6.40;;;20.80;99.90;;;;;;5034580;28;20529;-67
2021/07/27 05:38:09;;;;;;;7.88;5.95;;;20.80;99.90;;;;;;5036088;28;20041;-74
2021/07/27 05:40:35;;;;;;;7.80;6.30;;;20.90;99.90;;;;;;5036879;28;20046;-72
2021/07/27 05:43:02;;;;;;;7.28;6.35;;;21.00;99.90;;;;;;5043802;28;20485;-72
2021/07/27 05:45:29;;;;;;;8.50;6.40;;;20.90;99.90;;;;;;5045579;28;20045;-72
2021/07/27 05:47:55;;;;;;;9.50;7.32;;;21.00;99.90;;;;;;5035644;28;20049;-73
2021/07/27 05:50:22;;;;;;;8.30;6.18;;;21.00;99.90;;;;;;5034427;28;20049;-75
2021/07/27 05:52:57;;;;;;;7.18;6.03;;;21.10;99.90;;;;;;5035713;28;20057;-70
2021/07/27 05:55:23;;;;;;;12.68;9.82;;;21.30;99.90;;;;;;5034738;28;20136;-70
2021/07/27 05:57:50;;;;;;;7.72;6.20;;;21.40;99.90;;;;;;5035561;28;20045;-74
2021/07/27 06:00:17;;;;;;;7.28;6.07;;;21.50;99.90;;;;;;5034254;28;20091;-71
2021/07/27 06:02:44;;;;;;;10.02;5.18;;;21.60;99.90;;;;;;5033976;28;20514;-71
2021/07/27 06:05:11;;;;;;;9.75;6.80;;;21.80;99.90;;;;;;5034066;28;20415;-72
2021/07/27 06:07:37;;;;;;;14.27;9.50;;;22.00;99.90;;;;;;5036738;28;20041;-70
2021/07/27 06:10:06;;;;;;;6.88;5.57;;;22.20;99.90;;;;;;5053309;28;20041;-70
2021/07/27 06:12:33;;;;;;;8.98;5.97;;;22.30;99.90;;;;;;5051183;28;20041;-71
2021/07/27 06:14:59;;;;;;;16.38;11.38;;;22.50;99.90;;;;;;5044932;28;20131;-74
2021/07/27 06:17:26;;;;;;;7.47;5.88;;;22.70;99.90;;;;;;5034598;28;20045;-68
2021/07/27 06:19:52;;;;;;;8.15;5.32;;;22.90;99.90;;;;;;5033388;28;20041;-69
2021/07/27 06:22:19;;;;;;;6.25;5.10;;;23.00;99.90;;;;;;5033739;28;20046;-65
2021/07/27 06:24:46;;;;;;;7.25;5.75;;;23.10;99.90;;;;;;5033774;28;20049;-66
2021/07/27 06:27:14;;;;;;;6.55;5.53;;;23.40;99.90;;;;;;5037526;28;20510;-69
2021/07/27 06:29:40;;;;;;;7.57;4.72;;;23.70;99.90;;;;;;5052977;28;20051;-71
2021/07/27 06:32:10;;;;;;;5.95;5.38;;;23.80;99.90;;;;;;5052965;28;20049;-69
2021/07/27 06:34:37;;;;;;;6.60;5.25;;;24.30;99.90;;;;;;5033396;28;20493;-71
2021/07/27 06:37:03;;;;;;;5.80;5.03;;;24.40;99.90;;;;;;5045856;28;20046;-70
2021/07/27 06:39:30;;;;;;;6.97;4.38;;;24.40;99.90;;;;;;5035558;28;20494;-68
2021/07/27 06:41:57;;;;;;;5.60;4.30;;;24.50;99.90;;;;;;5043983;28;20053;-69
2021/07/27 06:44:25;;;;;;;5.40;4.88;;;24.70;99.90;;;;;;5054327;28;20056;-69
2021/07/27 06:46:52;;;;;;;6.10;5.22;;;24.70;99.90;;;;;;5053556;28;20114;-69
2021/07/27 06:49:19;;;;;;;6.32;4.93;;;24.80;99.90;;;;;;5052733;28;20041;-72
2021/07/27 06:51:47;;;;;;;6.70;5.20;;;25.20;99.90;;;;;;5053075;28;20114;-69
2021/07/27 06:54:13;;;;;;;5.07;4.45;;;25.50;99.90;;;;;;5054017;28;20049;-67
2021/07/27 06:56:43;;;;;;;7.30;4.50;;;25.70;99.90;;;;;;5033742;28;20053;-71
2021/07/27 06:59:10;;;;;;;7.30;4.38;;;26.00;99.90;;;;;;5034737;28;20421;-72
2021/07/27 07:01:39;;;;;;;10.95;6.95;;;26.20;99.90;;;;;;5034705;28;20046;-78
2021/07/27 07:04:06;;;;;;;5.85;4.80;;;26.60;99.90;;;;;;5033985;28;20091;-71
2021/07/27 07:06:33;;;;;;;7.15;4.90;;;26.30;99.90;;;;;;5032691;28;20559;-72
2021/07/27 07:08:59;;;;;;;6.55;4.35;;;26.60;99.90;;;;;;5049564;28;20052;-69
2021/07/27 07:11:27;;;;;;;4.97;4.47;;;26.20;99.90;;;;;;5033029;28;20088;-71
2021/07/27 07:13:54;;;;;;;3.85;3.55;;;26.40;99.90;;;;;;5032748;28;20049;-72
2021/07/27 07:16:21;;;;;;;7.43;4.68;;;26.80;99.90;;;;;;5033249;28;20042;-72
2021/07/27 07:18:49;;;;;;;8.90;5.95;;;27.30;99.90;;;;;;5033780;28;20130;-71
2021/07/27 07:21:16;;;;;;;6.22;4.75;;;27.60;99.90;;;;;;5051607;28;20111;-70
2021/07/27 07:23:43;;;;;;;7.20;5.28;;;28.10;99.90;;;;;;5053391;28;20140;-69
2021/07/27 07:26:10;;;;;;;4.43;3.78;;;28.10;99.90;;;;;;5053191;28;20565;-72
2021/07/27 07:28:38;;;;;;;10.02;6.07;;;28.10;99.90;;;;;;5049625;28;20114;-72
2021/07/27 07:31:08;;;;;;;11.02;6.90;;;28.20;99.40;;;;;;5036603;28;20041;-72
2021/07/27 07:33:36;;;;;;;4.00;3.70;;;28.50;99.40;;;;;;5043956;28;20065;-73
2021/07/27 07:36:11;;;;;;;4.38;3.97;;;28.20;97.30;;;;;;5035752;28;20544;-69
2021/07/27 07:38:37;;;;;;;7.72;4.53;;;27.80;97.70;;;;;;5052328;28;20049;-73
2021/07/27 07:41:06;;;;;;;5.07;3.70;;;28.70;98.70;;;;;;5051704;28;20072;-72
2021/07/27 07:43:33;;;;;;;3.75;3.30;;;28.90;95.10;;;;;;5052040;28;20049;-73
2021/07/27 07:46:00;;;;;;;5.25;4.70;;;28.70;94.60;;;;;;5051823;28;20057;-68
2021/07/27 07:48:26;;;;;;;3.67;3.35;;;29.40;94.60;;;;;;5050964;28;20537;-68
2021/07/27 07:50:53;;;;;;;3.88;3.58;;;29.70;92.90;;;;;;5051766;28;20099;-70
2021/07/27 07:53:21;;;;;;;6.20;4.47;;;29.60;91.50;;;;;;5032483;28;20513;-71
2021/07/27 07:55:48;;;;;;;4.35;3.83;;;30.00;91.90;;;;;;5032475;28;20119;-73
2021/07/27 07:58:15;;;;;;;3.88;3.28;;;29.60;91.60;;;;;;5048482;28;20527;-73
2021/07/27 08:00:43;;;;;;;3.70;3.40;;;29.30;92.00;;;;;;5050971;28;20045;-72
2021/07/27 08:03:12;;;;;;;4.50;4.10;;;29.40;92.10;;;;;;5052039;28;20497;-73
2021/07/27 08:05:39;;;;;;;5.40;3.45;;;28.80;92.10;;;;;;5052643;28;20080;-72
2021/07/27 08:08:06;;;;;;;4.45;4.05;;;28.90;92.10;;;;;;5040249;28;20056;-71
2021/07/27 08:10:34;;;;;;;4.78;4.38;;;29.20;93.10;;;;;;5035729;28;20044;-71
2021/07/27 08:13:01;;;;;;;3.75;3.38;;;29.60;91.80;;;;;;5039556;28;20060;-70
2021/07/27 08:15:28;;;;;;;3.47;3.17;;;30.00;90.40;;;;;;5032066;28;20061;-70
2021/07/27 08:17:55;;;;;;;5.82;5.22;;;29.80;88.80;;;;;;5031843;28;20054;-70
2021/07/27 08:20:22;;;;;;;3.75;3.45;;;29.50;90.90;;;;;;5036543;28;20049;-70
2021/07/27 08:22:49;;;;;;;4.00;3.65;;;29.30;90.70;;;;;;5053950;28;20462;-68
2021/07/27 08:25:16;;;;;;;5.05;3.92;;;29.30;90.40;;;;;;5054284;28;20041;-70
2021/07/27 08:27:45;;;;;;;4.53;4.13;;;29.40;90.30;;;;;;5053074;28;20493;-70
2021/07/27 08:30:14;;;;;;;4.93;3.63;;;29.20;89.60;;;;;;5041608;28;20049;-70
2021/07/27 08:32:45;;;;;;;4.10;3.65;;;29.40;90.30;;;;;;5037763;28;20049;-69
2021/07/27 08:35:14;;;;;;;3.92;3.60;;;29.20;88.90;;;;;;5051319;28;20445;-78
2021/07/27 08:37:42;;;;;;;4.38;3.58;;;29.10;89.90;;;;;;5004311;28;20060;-71
2021/07/27 08:40:09;;;;;;;5.60;3.63;;;28.90;89.80;;;;;;5046122;28;20053;-72
2021/07/27 08:42:41;;;;;;;3.63;3.33;;;28.50;89.70;;;;;;5034203;28;20378;-71
2021/07/27 08:45:11;;;;;;;4.18;3.78;;;28.00;90.30;;;;;;5051430;28;20053;-69
2021/07/27 08:47:40;;;;;;;3.90;3.58;;;28.10;90.40;;;;;;5050995;28;20049;-70
2021/07/27 08:50:09;;;;;;;6.13;4.03;;;28.60;89.90;;;;;;5038989;28;20056;-67
2021/07/27 08:52:37;;;;;;;5.28;3.97;;;29.40;89.50;;;;;;5032373;28;20132;-74
2021/07/27 08:55:12;;;;;;;4.72;3.70;;;30.00;87.00;;;;;;5031090;28;20102;-75
2021/07/27 08:57:48;;;;;;;3.50;3.20;;;30.10;84.70;;;;;;5031380;28;20133;-72
2021/07/27 09:00:17;;;;;;;3.80;3.50;;;29.70;83.00;;;;;;5030557;28;20137;-71
2021/07/27 09:02:44;;;;;;;4.32;3.60;;;30.00;82.00;;;;;;5036328;28;20094;-72
2021/07/27 09:05:13;;;;;;;3.58;3.28;;;30.80;80.90;;;;;;5040479;28;20103;-72
2021/07/27 09:07:40;;;;;;;3.10;2.80;;;30.20;81.00;;;;;;5030994;28;20045;-73
2021/07/27 09:10:18;;;;;;;4.05;3.10;;;29.80;80.00;;;;;;5030684;28;20124;-73
2021/07/27 09:12:55;;;;;;;6.72;4.05;;;29.20;80.80;;;;;;5031328;28;20454;-72
2021/07/27 09:15:25;;;;;;;3.88;3.47;;;29.60;81.20;;;;;;5031005;28;20414;-72
2021/07/27 09:17:56;;;;;;;3.25;2.95;;;30.40;80.00;;;;;;5040631;28;20045;-69
2021/07/27 09:20:31;;;;;;;3.80;3.15;;;31.10;77.50;;;;;;5047215;28;20045;-69
2021/07/27 09:22:58;;;;;;;5.82;3.47;;;30.40;75.60;;;;;;5051263;28;20493;-73
2021/07/27 09:25:27;;;;;;;4.57;3.28;;;30.20;78.60;;;;;;5050239;28;20056;-71
2021/07/27 09:28:01;;;;;;;3.63;3.33;;;30.10;79.30;;;;;;5034247;28;20144;-68
2021/07/27 09:30:30;;;;;;;3.15;2.55;;;29.90;75.90;;;;;;5030388;28;20045;-75
2021/07/27 09:32:57;;;;;;;2.20;2.10;;;30.30;72.80;;;;;;5030829;28;20508;-70
2021/07/27 09:35:24;;;;;;;5.97;4.65;;;30.30;71.20;;;;;;5031311;28;20048;-72
2021/07/27 09:38:05;;;;;;;2.85;2.65;;;31.20;74.00;;;;;;5031311;28;20046;-74
2021/07/27 09:40:33;;;;;;;3.17;2.90;;;31.80;69.50;;;;;;5030529;28;20107;-78
2021/07/27 09:43:00;;;;;;;3.10;2.80;;;32.00;69.80;;;;;;5040834;28;20056;-72
2021/07/27 09:45:29;;;;;;;5.78;3.47;;;31.30;68.80;;;;;;5054709;28;20049;-77
2021/07/27 09:47:57;;;;;;;4.00;2.97;;;32.40;70.50;;;;;;5042276;28;20101;-77
2021/07/27 09:50:24;;;;;;;5.05;4.32;;;31.70;66.50;;;;;;5034751;28;20490;-75
2021/07/27 09:52:52;;;;;;;3.80;3.50;;;31.70;70.70;;;;;;5037289;28;20100;-77
2021/07/27 09:55:22;;;;;;;3.63;2.60;;;31.00;69.20;;;;;;5034248;28;20451;-71
2021/07/27 09:57:49;;;;;;;4.47;3.70;;;31.00;69.40;;;;;;5034423;28;20052;-72
2021/07/27 10:00:17;;;;;;;3.20;2.85;;;30.60;70.30;;;;;;5033678;28;20057;-72
2021/07/27 10:02:48;;;;;;;5.13;2.35;;;30.60;70.70;;;;;;5034253;28;20128;-72
2021/07/27 10:05:22;;;;;;;4.00;3.22;;;31.00;68.90;;;;;;5036109;28;20112;-73
2021/07/27 10:07:59;;;;;;;3.10;2.30;;;31.20;70.00;;;;;;5045648;28;20049;-71
2021/07/27 10:10:39;;;;;;;2.90;2.60;;;31.50;69.40;;;;;;5045770;28;20049;-71
2021/07/27 10:13:11;;;;;;;3.22;2.13;;;32.00;63.60;;;;;;5047569;28;20041;-72
2021/07/27 10:15:46;;;;;;;3.22;2.92;;;32.30;63.40;;;;;;5035823;28;20042;-72
2021/07/27 10:18:15;;;;;;;2.92;2.40;;;32.60;63.50;;;;;;5044604;28;20049;-73
2021/07/27 10:20:42;;;;;;;3.17;2.88;;;32.10;62.60;;;;;;5041156;28;20053;-72
2021/07/27 10:23:20;;;;;;;2.95;2.60;;;31.10;65.00;;;;;;5034130;28;20049;-72
2021/07/27 10:25:58;;;;;;;3.53;3.22;;;30.60;65.60;;;;;;5050469;28;20493;-73
2021/07/27 10:28:26;;;;;;;2.33;2.20;;;30.20;68.00;;;;;;5047272;28;20369;-73
2021/07/27 10:31:06;;;;;;;5.05;4.47;;;29.60;68.90;;;;;;5033399;28;20395;-72
2021/07/27 10:33:36;;;;;;;2.67;2.42;;;29.40;71.50;;;;;;5036236;28;20049;-73
2021/07/27 10:36:03;;;;;;;3.47;3.17;;;28.60;73.10;;;;;;5036829;28;20536;-72
2021/07/27 10:38:38;;;;;;;2.83;2.63;;;28.50;74.70;;;;;;5034389;28;20049;-72
2021/07/27 10:41:18;;;;;;;4.32;2.55;;;29.00;74.80;;;;;;5034974;28;20046;-72
2021/07/27 10:43:45;;;;;;;2.70;2.50;;;30.50;70.90;;;;;;5034503;28;20119;-72
2021/07/27 10:46:12;;;;;;;3.25;2.50;;;31.50;67.90;;;;;;5035698;28;20041;-72
2021/07/27 10:48:41;;;;;;;3.53;3.25;;;31.70;66.90;;;;;;5033405;28;20486;-73
2021/07/27 10:51:09;;;;;;;2.70;2.50;;;32.00;65.30;;;;;;5033288;28;20095;-72
2021/07/27 10:53:36;;;;;;;2.90;2.28;;;30.80;65.00;;;;;;5032853;28;20413;-73
2021/07/27 10:56:04;;;;;;;2.78;2.55;;;29.10;68.40;;;;;;5035661;28;20053;-72
2021/07/27 10:58:31;;;;;;;3.10;2.78;;;28.80;72.60;;;;;;5053151;28;20045;-71
2021/07/27 11:01:08;;;;;;;3.63;2.70;;;29.20;72.80;;;;;;5048172;28;20051;-73
2021/07/27 11:03:35;;;;;;;3.72;2.67;;;29.80;71.60;;;;;;5033887;28;20046;-71
2021/07/27 11:06:04;;;;;;;2.97;2.47;;;29.80;71.10;;;;;;5034862;28;20490;-71
2021/07/27 11:08:30;;;;;;;4.75;3.10;;;29.10;72.00;;;;;;5033557;28;20061;-74
2021/07/27 11:11:04;;;;;;;3.10;2.80;;;29.00;74.50;;;;;;5034478;28;20045;-73
2021/07/27 11:13:32;;;;;;;5.55;4.45;;;30.20;70.10;;;;;;5035163;28;20049;-71
2021/07/27 11:16:00;;;;;;;4.88;4.35;;;31.20;68.40;;;;;;5040215;28;20045;-73
2021/07/27 11:18:28;;;;;;;2.70;2.47;;;32.00;67.00;;;;;;5042848;28;20045;-71
2021/07/27 11:20:56;;;;;;;2.70;2.50;;;31.90;62.80;;;;;;5047236;28;20136;-71
2021/07/27 11:23:25;;;;;;;3.10;2.53;;;32.40;64.20;;;;;;5052726;28;20064;-73
2021/07/27 11:25:53;;;;;;;2.63;2.42;;;32.60;63.10;;;;;;5034582;28;20048;-71
2021/07/27 11:28:21;;;;;;;2.83;2.53;;;32.60;63.50;;;;;;5033013;28;20073;-69
2021/07/27 11:30:48;;;;;;;4.90;2.22;;;32.90;60.50;;;;;;5036015;28;20223;-71
2021/07/27 11:33:17;;;;;;;2.65;2.45;;;32.50;60.80;;;;;;5052464;28;20099;-70
2021/07/27 11:35:45;;;;;;;3.08;2.40;;;32.10;64.10;;;;;;5051655;28;20076;-69
2021/07/27 11:38:13;;;;;;;4.40;2.55;;;30.80;63.90;;;;;;5044807;28;20067;-70
2021/07/27 11:40:41;;;;;;;2.65;2.45;;;30.10;64.90;;;;;;5031875;28;20502;-69
2021/07/27 11:43:09;;;;;;;2.50;2.28;;;29.30;67.40;;;;;;5040861;28;20041;-71
2021/07/27 11:45:37;;;;;;;2.55;2.13;;;29.30;67.90;;;;;;5046887;28;20048;-70
2021/07/27 11:48:04;;;;;;;2.28;2.08;;;28.90;69.70;;;;;;5052280;28;20049;-72
2021/07/27 11:50:33;;;;;;;4.97;2.20;;;29.50;68.40;;;;;;5034350;28;20092;-71
2021/07/27 11:53:02;;;;;;;2.72;2.10;;;30.30;64.30;;;;;;5034697;28;20041;-72
2021/07/27 11:55:30;;;;;;;2.38;1.98;;;31.20;64.70;;;;;;5041824;28;20045;-69
2021/07/27 11:57:58;;;;;;;5.85;2.08;;;31.20;60.60;;;;;;5033119;28;20103;-70
2021/07/27 12:00:25;;;;;;;1.80;1.70;;;30.80;59.70;;;;;;5031429;28;20092;-70
2021/07/27 12:02:52;;;;;;;1.85;1.75;;;31.30;61.80;;;;;;5032241;28;20523;-71
2021/07/27 12:05:19;;;;;;;2.65;2.38;;;30.30;61.60;;;;;;5030987;28;20049;-71
2021/07/27 12:07:46;;;;;;;2.95;2.13;;;29.80;63.20;;;;;;5031860;28;20073;-70
2021/07/27 12:10:14;;;;;;;3.75;2.83;;;29.10;64.80;;;;;;5043122;28;20080;-70
2021/07/27 12:12:44;;;;;;;4.80;4.40;;;29.10;68.50;;;;;;5051501;28;20505;-72
2021/07/27 12:15:15;;;;;;;3.20;2.53;;;28.60;68.00;;;;;;5051568;28;20102;-73
2021/07/27 12:17:44;;;;;;;2.30;2.08;;;28.70;67.80;;;;;;5047355;28;20049;-72
2021/07/27 12:20:13;;;;;;;2.33;2.08;;;28.90;67.10;;;;;;5041683;28;20088;-70
2021/07/27 12:22:40;;;;;;;2.95;2.33;;;28.80;67.70;;;;;;5052689;28;20045;-69
2021/07/27 12:25:08;;;;;;;4.88;2.80;;;28.70;67.30;;;;;;5040473;28;20152;-70
2021/07/27 12:27:37;;;;;;;2.67;2.10;;;28.20;68.40;;;;;;5031889;28;20085;-70
2021/07/27 12:30:05;;;;;;;2.85;2.15;;;28.10;71.30;;;;;;5031477;28;20559;-70
2021/07/27 12:32:34;;;;;;;2.42;2.17;;;28.10;70.80;;;;;;5041752;28;20037;-73
2021/07/27 12:35:01;;;;;;;3.30;2.42;;;27.90;71.10;;;;;;5053179;28;20498;-73
2021/07/27 12:37:27;;;;;;;2.30;2.10;;;27.80;73.30;;;;;;5053680;28;20049;-74
2021/07/27 12:39:54;;;;;;;3.10;2.72;;;27.90;71.80;;;;;;5046228;28;20046;-73
2021/07/27 12:42:21;;;;;;;2.63;2.42;;;28.00;73.70;;;;;;5033677;28;20042;-74
2021/07/27 12:44:48;;;;;;;3.10;2.70;;;28.30;72.90;;;;;;5033589;28;20041;-72
2021/07/27 12:47:15;;;;;;;3.13;2.30;;;28.50;72.40;;;;;;5032200;28;20049;-72
2021/07/27 12:49:43;;;;;;;2.58;1.98;;;28.50;70.60;;;;;;5030891;28;20099;-72
2021/07/27 12:52:11;;;;;;;1.80;1.70;;;28.20;70.80;;;;;;5031144;28;20046;-73
2021/07/27 12:54:38;;;;;;;2.92;2.03;;;28.00;71.10;;;;;;5031186;28;20048;-73
2021/07/27 12:57:05;;;;;;;4.03;2.25;;;27.90;71.70;;;;;;5046208;28;20490;-73
2021/07/27 12:59:32;;;;;;;2.60;2.40;;;27.70;72.40;;;;;;5034243;28;20054;-72
2021/07/27 13:01:59;;;;;;;3.08;2.30;;;27.60;72.30;;;;;;5033013;28;20099;-73
2021/07/27 13:04:26;;;;;;;1.92;1.70;;;27.60;72.40;;;;;;5032266;28;20049;-73
2021/07/27 13:06:54;;;;;;;2.20;1.95;;;27.80;71.40;;;;;;5032317;28;20505;-73
2021/07/27 13:09:20;;;;;;;2.67;2.05;;;27.90;71.10;;;;;;5037939;28;20095;-71
2021/07/27 13:11:48;;;;;;;2.05;1.85;;;28.20;71.40;;;;;;5052392;28;20106;-72
2021/07/27 13:14:14;;;;;;;4.13;3.03;;;28.40;71.10;;;;;;5033950;28;20112;-73